logo
Search for airport 
image banner adimage banner adimage banner ad
image banner ad

CJB3 - Steinbach

Located in , Canada

ICAO - CJB3, IATA -

Data provided by Airmate  

General information

Coordinates: N49°33'3" W96°40'50"
Elevation is 849 feet MSL.
Magnetic variation is 2.8167° East
View others Airports in Manitoba

Operational data

Special qualification required
Current time UTC:
Current local time:
METAR: CYWG 290100Z 19006KT 15SM BKN038 BKN260 17/16 A2976 RMK SC5CI2 SLP084 DENSITY ALT 1500FT
TAF: TAF CYWG 282340Z 2900/2924 20012G22KT P6SM OVC025 TEMPO 2900/2903 5SM -SHRA BR OVC020 FM290300 27008KT P6SM SCT050 TEMPO 2903/2905 BKN030 FM291000 VRB03KT 2SM BR FEW004 TEMPO 2910/2914 1/2SM FG VV002 FM291400 25006KT P6SM FEW005 SCT240 FM291800 24008KT P6SM SCT180 FM292100 26010KT P6SM FEW240 RMK NXT FCST BY 290600Z
View NOTAMs / SUP AIP / TFR affecting this airport [VIEW]
Communications frequencies: [VIEW]

Runways:

RWY identifierQFULength (ft)Width (ft)SurfaceLDA (ft)
15150°306075ASPH3060
33330°306075ASPH3060

Airport contact information

Address: Canada

Other aviation service providers

Flight schools

Adventure At Altitude

Adventure At Altitude

Harv's Air

Harv's Air
adam@harvsair.com+12043262434

Pilot Training Ca

Pilot Training Ca

Satellite view of CJB3